Time;durP1;ratioP1;P1;durP2;ratioP2;P2;SDS_P1;SDS_P2;PMS_P1;PMS_P2;Temp;Humidity;BMP_temperature;BMP_pressure;BME280_temperature;BME280_humidity;BME280_pressure;Samples;Min_cycle;Max_cycle;Signal;HPM_P1;HPM_P2
2023/04/23 00:01:28;;;;;;;7.60;6.90;;;15.90;99.90;;;;;;5007950;28;20490;-61
2023/04/23 00:03:58;;;;;;;7.90;7.27;;;15.80;99.90;;;;;;5013659;28;20464;-63
2023/04/23 00:06:29;;;;;;;7.67;7.07;;;15.80;99.90;;;;;;5015323;28;20525;-61
2023/04/23 00:08:59;;;;;;;7.37;6.77;;;15.80;99.90;;;;;;5008833;28;20498;-61
2023/04/23 00:11:28;;;;;;;7.73;7.03;;;15.80;99.90;;;;;;5011858;28;20492;-61
2023/04/23 00:13:56;;;;;;;6.83;6.33;;;15.80;99.90;;;;;;5009120;28;20464;-60
2023/04/23 00:16:25;;;;;;;8.63;7.93;;;15.80;99.90;;;;;;5014283;28;20538;-61
2023/04/23 00:18:53;;;;;;;9.20;8.50;;;15.80;99.90;;;;;;5016889;28;20500;-61
2023/04/23 00:21:21;;;;;;;9.33;8.63;;;15.80;99.90;;;;;;5016250;28;20502;-61
2023/04/23 00:23:50;;;;;;;9.30;8.60;;;15.80;99.90;;;;;;5017184;28;20817;-61
2023/04/23 00:26:18;;;;;;;9.30;8.40;;;15.80;99.90;;;;;;5021860;28;20475;-61
2023/04/23 00:28:46;;;;;;;10.83;9.93;;;15.80;99.90;;;;;;5030191;28;20492;-61
2023/04/23 00:31:14;;;;;;;10.07;9.27;;;15.80;99.90;;;;;;5016895;28;20514;-60
2023/04/23 00:33:42;;;;;;;10.50;9.60;;;15.70;99.90;;;;;;5019641;28;20489;-62
2023/04/23 00:36:10;;;;;;;12.47;9.87;;;15.70;99.90;;;;;;5011227;28;20475;-61
2023/04/23 00:38:38;;;;;;;10.67;9.57;;;15.70;99.90;;;;;;5002695;28;20499;-61
2023/04/23 00:41:07;;;;;;;11.20;10.30;;;15.70;99.90;;;;;;5006116;28;20484;-61
2023/04/23 00:43:36;;;;;;;11.03;10.03;;;15.70;99.90;;;;;;5008034;28;20994;-61
2023/04/23 00:46:04;;;;;;;11.53;10.30;;;15.70;99.90;;;;;;5002452;28;20482;-61
2023/04/23 00:48:34;;;;;;;11.13;10.03;;;15.70;99.90;;;;;;4997235;28;20502;-61
2023/04/23 00:51:05;;;;;;;10.77;9.97;;;15.60;99.90;;;;;;4996845;28;20494;-60
2023/04/23 00:53:33;;;;;;;11.90;10.70;;;15.60;99.90;;;;;;4995896;28;20486;-61
2023/04/23 00:56:03;;;;;;;11.90;10.93;;;15.50;99.90;;;;;;4999739;28;21076;-61
2023/04/23 00:58:33;;;;;;;11.53;10.53;;;15.50;99.90;;;;;;4993687;28;20495;-62
2023/04/23 01:01:03;;;;;;;11.83;10.83;;;15.50;99.90;;;;;;4986650;28;21656;-61
2023/04/23 01:03:32;;;;;;;12.60;11.57;;;15.40;99.90;;;;;;4995241;28;20599;-61
2023/04/23 01:06:00;;;;;;;12.37;11.37;;;15.40;99.90;;;;;;4999605;28;20475;-61
2023/04/23 01:08:28;;;;;;;11.77;10.87;;;15.40;99.90;;;;;;5004421;28;20498;-61
2023/04/23 01:10:57;;;;;;;12.87;11.73;;;15.40;99.90;;;;;;5003059;28;20494;-61
2023/04/23 01:13:28;;;;;;;13.73;12.33;;;15.40;99.90;;;;;;5004562;28;21240;-60
2023/04/23 01:15:58;;;;;;;13.60;12.40;;;15.40;99.90;;;;;;5001745;28;20595;-61
2023/04/23 01:18:26;;;;;;;14.70;13.40;;;15.30;99.90;;;;;;5007543;28;20502;-61
2023/04/23 01:20:54;;;;;;;14.30;13.10;;;15.30;99.90;;;;;;5007462;28;20491;-62
2023/04/23 01:23:23;;;;;;;13.23;12.17;;;15.30;99.90;;;;;;5004826;28;20839;-61
2023/04/23 01:25:51;;;;;;;13.77;12.60;;;15.30;99.90;;;;;;5004443;28;20479;-60
2023/04/23 01:28:20;;;;;;;14.73;13.50;;;15.30;99.90;;;;;;5017106;28;20514;-61
2023/04/23 01:30:48;;;;;;;14.17;13.00;;;15.30;99.90;;;;;;5013037;28;20464;-61
2023/04/23 01:33:17;;;;;;;13.87;12.70;;;15.30;99.90;;;;;;5007121;28;20475;-61
2023/04/23 01:35:48;;;;;;;14.40;13.23;;;15.30;99.90;;;;;;5005780;28;20475;-60
2023/04/23 01:38:17;;;;;;;14.90;13.60;;;15.30;99.90;;;;;;5019141;28;20487;-61
2023/04/23 01:40:46;;;;;;;15.90;14.60;;;15.30;99.90;;;;;;5009046;28;20960;-61
2023/04/23 01:43:17;;;;;;;15.33;13.93;;;15.20;99.90;;;;;;5007991;28;20478;-60
2023/04/23 01:45:45;;;;;;;15.70;14.17;;;15.20;99.90;;;;;;5001062;28;20468;-61
2023/04/23 01:48:16;;;;;;;14.90;13.60;;;15.20;99.90;;;;;;5005867;28;20472;-61
2023/04/23 01:50:44;;;;;;;14.80;13.50;;;15.20;99.90;;;;;;5002518;28;20478;-61
2023/04/23 01:53:12;;;;;;;14.77;13.37;;;15.20;99.90;;;;;;5004830;28;20482;-61
2023/04/23 01:55:41;;;;;;;14.30;13.13;;;15.10;99.90;;;;;;5012161;28;20892;-61
2023/04/23 01:58:10;;;;;;;13.67;12.47;;;15.10;99.90;;;;;;5016704;28;20472;-61
2023/04/23 02:00:38;;;;;;;15.57;14.07;;;15.10;99.90;;;;;;5011888;28;20500;-61
2023/04/23 02:03:06;;;;;;;16.87;15.47;;;15.10;99.90;;;;;;5006625;28;20475;-60
2023/04/23 02:05:35;;;;;;;17.43;15.87;;;14.90;99.90;;;;;;5013903;28;20467;-61
2023/04/23 02:08:03;;;;;;;21.23;19.33;;;14.70;99.90;;;;;;5013097;28;20474;-61
2023/04/23 02:10:31;;;;;;;24.13;21.83;;;14.40;99.90;;;;;;5017710;28;20472;-61
2023/04/23 02:13:00;;;;;;;24.70;22.30;;;14.30;99.90;;;;;;5016594;28;20467;-61
2023/04/23 02:15:29;;;;;;;25.43;23.03;;;14.10;99.90;;;;;;5013959;28;20569;-61
2023/04/23 02:18:00;;;;;;;28.13;25.37;;;13.90;99.90;;;;;;5014503;28;20468;-61
2023/04/23 02:20:28;;;;;;;27.70;25.10;;;13.80;99.90;;;;;;5014453;28;20510;-61
2023/04/23 02:22:56;;;;;;;26.50;24.00;;;13.70;99.90;;;;;;5014482;28;20537;-61
2023/04/23 02:25:24;;;;;;;26.33;23.83;;;13.60;99.90;;;;;;5005378;28;20479;-61
2023/04/23 02:27:52;;;;;;;27.30;24.70;;;13.40;99.90;;;;;;5006624;28;20467;-61
2023/04/23 02:30:20;;;;;;;25.70;23.30;;;13.30;99.90;;;;;;5009114;28;20490;-61
2023/04/23 02:32:49;;;;;;;27.13;24.53;;;13.20;99.90;;;;;;5001840;28;20517;-61
2023/04/23 02:35:17;;;;;;;26.67;24.00;;;13.20;99.90;;;;;;5009167;28;20502;-61
2023/04/23 02:37:45;;;;;;;28.77;25.97;;;13.10;99.90;;;;;;5007164;28;20467;-60
2023/04/23 02:40:19;;;;;;;28.90;26.07;;;13.00;99.90;;;;;;5016271;28;20956;-61
2023/04/23 02:42:47;;;;;;;27.67;24.87;;;12.90;99.90;;;;;;5009474;28;20661;-60
2023/04/23 02:45:15;;;;;;;28.90;25.80;;;12.80;99.90;;;;;;5013613;28;20506;-61
2023/04/23 02:47:43;;;;;;;27.67;24.77;;;12.80;99.90;;;;;;5005908;28;20482;-61
2023/04/23 02:50:12;;;;;;;27.97;25.13;;;12.70;99.90;;;;;;5007145;28;20506;-61
2023/04/23 02:52:40;;;;;;;29.30;26.30;;;12.70;99.90;;;;;;5003382;28;21101;-61
2023/04/23 02:55:09;;;;;;;25.57;23.00;;;12.60;99.90;;;;;;5002879;28;20920;-60
2023/04/23 02:57:38;;;;;;;26.90;24.07;;;12.60;99.90;;;;;;5001362;28;21131;-61
2023/04/23 03:00:07;;;;;;;26.00;23.30;;;12.50;99.90;;;;;;5005809;28;20514;-60
2023/04/23 03:02:35;;;;;;;24.63;22.03;;;12.50;99.90;;;;;;5002685;28;21207;-61
2023/04/23 03:05:04;;;;;;;24.80;22.30;;;12.40;99.90;;;;;;4999953;28;20480;-60
2023/04/23 03:07:34;;;;;;;23.20;20.80;;;12.40;99.90;;;;;;5002766;28;20474;-60
2023/04/23 03:10:02;;;;;;;24.50;22.07;;;12.30;99.90;;;;;;5001752;28;20841;-61
2023/04/23 03:12:30;;;;;;;24.30;21.87;;;12.30;99.90;;;;;;4997677;28;21043;-61
2023/04/23 03:14:58;;;;;;;23.80;21.40;;;12.20;99.90;;;;;;5008269;28;20474;-61
2023/04/23 03:17:26;;;;;;;23.07;20.77;;;12.20;99.90;;;;;;5012536;28;20471;-61
2023/04/23 03:19:54;;;;;;;24.93;22.33;;;12.20;99.90;;;;;;5019010;28;20859;-61
2023/04/23 03:22:22;;;;;;;22.80;20.50;;;12.20;99.90;;;;;;5019922;28;20502;-61
2023/04/23 03:24:51;;;;;;;22.33;20.13;;;12.10;99.90;;;;;;5014756;28;20479;-62
2023/04/23 03:27:19;;;;;;;25.80;20.20;;;12.10;99.90;;;;;;5019456;28;20506;-61
2023/04/23 03:29:47;;;;;;;22.03;19.83;;;12.10;99.90;;;;;;5019190;28;20531;-61
2023/04/23 03:32:14;;;;;;;21.23;19.10;;;12.10;99.90;;;;;;5014255;28;21584;-61
2023/04/23 03:34:42;;;;;;;21.10;19.00;;;12.00;99.90;;;;;;5032675;28;20472;-60
2023/04/23 03:37:10;;;;;;;22.33;20.07;;;12.00;99.90;;;;;;5029157;28;20473;-62
2023/04/23 03:39:38;;;;;;;22.07;19.87;;;11.90;99.90;;;;;;5025101;28;20489;-60
2023/04/23 03:42:08;;;;;;;21.40;19.20;;;11.90;99.90;;;;;;5012591;28;20921;-61
2023/04/23 03:44:36;;;;;;;21.17;19.10;;;11.80;99.90;;;;;;5013875;28;20467;-61
2023/04/23 03:47:04;;;;;;;20.07;18.03;;;11.70;99.90;;;;;;5010062;28;20470;-60
2023/04/23 03:49:32;;;;;;;19.20;17.30;;;11.70;99.90;;;;;;5006552;28;20491;-60
2023/04/23 03:52:00;;;;;;;19.30;17.30;;;11.60;99.90;;;;;;5005124;28;20806;-61
2023/04/23 03:54:28;;;;;;;17.70;16.10;;;11.60;99.90;;;;;;5009230;28;20476;-60
2023/04/23 03:56:56;;;;;;;19.37;17.37;;;11.60;99.90;;;;;;5018945;28;20479;-60
2023/04/23 03:59:25;;;;;;;18.60;16.80;;;11.60;99.90;;;;;;5004115;28;20506;-61
2023/04/23 04:01:53;;;;;;;17.50;15.80;;;11.50;99.90;;;;;;5002699;28;20495;-61
2023/04/23 04:04:21;;;;;;;17.30;15.70;;;11.50;99.90;;;;;;4992853;28;20479;-60
2023/04/23 04:06:50;;;;;;;16.80;15.20;;;11.50;99.90;;;;;;5001268;28;20498;-61
2023/04/23 04:09:17;;;;;;;17.07;15.37;;;11.50;99.90;;;;;;5010588;28;20487;-60
2023/04/23 04:11:45;;;;;;;16.50;14.77;;;11.50;99.90;;;;;;4999851;28;20495;-60
2023/04/23 04:14:13;;;;;;;17.53;15.90;;;11.50;99.90;;;;;;4997680;28;20483;-61
2023/04/23 04:16:43;;;;;;;16.53;14.63;;;11.50;99.90;;;;;;5012948;28;20471;-61
2023/04/23 04:19:11;;;;;;;16.83;15.23;;;11.50;99.90;;;;;;5013657;28;20499;-60
2023/04/23 04:21:41;;;;;;;15.43;13.93;;;11.50;99.90;;;;;;4996275;28;21248;-61
2023/04/23 04:24:10;;;;;;;15.77;14.17;;;11.50;99.90;;;;;;5002080;28;20467;-64
2023/04/23 04:26:38;;;;;;;14.87;13.40;;;11.40;99.90;;;;;;5001567;28;21668;-61
2023/04/23 04:29:08;;;;;;;14.10;12.70;;;11.40;99.90;;;;;;5007008;28;21012;-61
2023/04/23 04:31:36;;;;;;;14.63;13.20;;;11.40;99.90;;;;;;5004967;28;20497;-61
2023/04/23 04:34:06;;;;;;;14.47;13.07;;;11.40;99.90;;;;;;5005761;28;20956;-60
2023/04/23 04:36:34;;;;;;;13.30;12.00;;;11.40;99.90;;;;;;5003442;28;20479;-62
2023/04/23 04:39:02;;;;;;;14.10;12.63;;;11.40;99.90;;;;;;4999503;28;20491;-61
2023/04/23 04:41:30;;;;;;;13.53;12.17;;;11.40;99.90;;;;;;4995640;28;20508;-60
2023/04/23 04:44:01;;;;;;;13.70;12.40;;;11.40;99.90;;;;;;5001670;28;21052;-61
2023/04/23 04:46:30;;;;;;;13.53;12.20;;;11.40;99.90;;;;;;5012242;28;20505;-61
2023/04/23 04:48:58;;;;;;;13.10;11.80;;;11.30;99.90;;;;;;5014551;28;20527;-61
2023/04/23 04:51:27;;;;;;;12.80;11.67;;;11.30;99.90;;;;;;5002103;28;20499;-61
2023/04/23 04:53:55;;;;;;;13.80;12.40;;;11.30;99.90;;;;;;4996919;28;20463;-61
2023/04/23 04:56:24;;;;;;;12.90;11.60;;;11.30;99.90;;;;;;5004201;28;20482;-61
2023/04/23 04:58:52;;;;;;;12.30;11.20;;;11.30;99.90;;;;;;5001438;28;20522;-61
2023/04/23 05:01:22;;;;;;;12.37;11.27;;;11.30;99.90;;;;;;4994482;28;20494;-60
2023/04/23 05:03:50;;;;;;;12.30;11.00;;;11.30;99.90;;;;;;4997416;28;20534;-61
2023/04/23 05:06:18;;;;;;;13.57;12.17;;;11.20;99.90;;;;;;5015712;28;21057;-61
2023/04/23 05:08:47;;;;;;;12.53;11.30;;;11.30;99.90;;;;;;4997635;28;20499;-61
2023/04/23 05:11:19;;;;;;;12.30;11.10;;;11.30;99.90;;;;;;5000803;28;20479;-60
2023/04/23 05:13:48;;;;;;;12.53;11.03;;;11.20;99.90;;;;;;5015128;28;20467;-60
2023/04/23 05:16:16;;;;;;;11.33;10.33;;;11.20;99.90;;;;;;5008998;28;20999;-60
2023/04/23 05:18:44;;;;;;;11.20;10.10;;;11.20;99.90;;;;;;5017835;28;20520;-61
2023/04/23 05:21:13;;;;;;;11.30;10.17;;;11.20;99.90;;;;;;5017271;28;20965;-60
2023/04/23 05:23:41;;;;;;;11.60;10.30;;;11.20;99.90;;;;;;5013854;28;20499;-61
2023/04/23 05:26:10;;;;;;;10.90;9.90;;;11.20;99.90;;;;;;5017786;28;20482;-61
2023/04/23 05:28:38;;;;;;;11.10;10.00;;;11.20;99.90;;;;;;5017541;28;21008;-61
2023/04/23 05:31:06;;;;;;;9.00;8.20;;;11.20;99.90;;;;;;5015076;28;20498;-62
2023/04/23 05:33:34;;;;;;;10.00;9.00;;;11.20;99.90;;;;;;5014490;28;20471;-61
2023/04/23 05:36:15;;;;;;;8.60;7.90;;;11.20;99.90;;;;;;5019328;28;20598;-61
2023/04/23 05:38:43;;;;;;;9.60;8.30;;;11.20;99.90;;;;;;5024845;28;20505;-61
2023/04/23 05:41:13;;;;;;;8.53;7.73;;;11.20;99.90;;;;;;5019545;28;20537;-61
2023/04/23 05:43:41;;;;;;;8.70;7.90;;;11.10;99.90;;;;;;5019077;28;20467;-62
2023/04/23 05:46:09;;;;;;;8.70;7.80;;;11.10;99.90;;;;;;5008672;28;20476;-60
2023/04/23 05:48:37;;;;;;;8.73;7.93;;;11.10;99.90;;;;;;5009678;28;20579;-61
2023/04/23 05:51:05;;;;;;;9.20;7.80;;;11.10;99.90;;;;;;5023505;28;20482;-60
2023/04/23 05:53:33;;;;;;;9.60;8.80;;;11.10;99.90;;;;;;5005698;28;21578;-62
2023/04/23 05:56:01;;;;;;;9.83;8.93;;;11.10;99.90;;;;;;5000852;28;20468;-61
2023/04/23 05:58:31;;;;;;;9.47;8.57;;;11.00;99.90;;;;;;4997280;28;20522;-60
2023/04/23 06:00:59;;;;;;;10.57;9.47;;;11.00;99.90;;;;;;5001826;28;21092;-62
2023/04/23 06:03:26;;;;;;;9.40;8.40;;;11.00;99.90;;;;;;4999278;28;20846;-62
2023/04/23 06:05:55;;;;;;;9.57;8.67;;;11.00;99.90;;;;;;5006861;28;20476;-61
2023/04/23 06:08:23;;;;;;;9.47;8.57;;;11.00;99.90;;;;;;5009396;28;20480;-61
2023/04/23 06:10:52;;;;;;;9.83;8.83;;;11.00;99.90;;;;;;4995227;28;20620;-61
2023/04/23 06:13:20;;;;;;;9.57;8.57;;;11.00;99.90;;;;;;5002660;28;20470;-61
2023/04/23 06:15:49;;;;;;;9.70;8.80;;;11.00;99.90;;;;;;4997926;28;20467;-61
2023/04/23 06:18:20;;;;;;;10.13;9.23;;;11.00;99.90;;;;;;5006677;28;21012;-61
2023/04/23 06:20:50;;;;;;;9.20;8.40;;;11.00;99.90;;;;;;5009031;28;20476;-61
2023/04/23 06:23:18;;;;;;;9.87;8.40;;;11.00;99.90;;;;;;5008312;28;20497;-60
2023/04/23 06:25:46;;;;;;;9.87;8.90;;;11.00;99.90;;;;;;5005838;28;21003;-63
2023/04/23 06:28:14;;;;;;;7.80;7.03;;;11.00;99.90;;;;;;5002765;28;22263;-60
2023/04/23 06:30:43;;;;;;;10.50;7.20;;;11.00;99.90;;;;;;4990364;28;20467;-60
2023/04/23 06:33:12;;;;;;;8.80;7.80;;;11.10;99.90;;;;;;4993515;28;20478;-61
2023/04/23 06:35:40;;;;;;;8.10;7.30;;;11.10;99.90;;;;;;4999904;28;20478;-61
2023/04/23 06:38:08;;;;;;;8.03;7.33;;;11.10;99.90;;;;;;5005312;28;20467;-61
2023/04/23 06:40:36;;;;;;;8.13;7.30;;;11.10;99.90;;;;;;5002845;28;20486;-61
2023/04/23 06:43:04;;;;;;;7.43;6.73;;;11.10;99.90;;;;;;5004652;28;20495;-61
2023/04/23 06:45:32;;;;;;;13.80;8.20;;;11.10;99.90;;;;;;5009683;28;20471;-61
2023/04/23 06:48:00;;;;;;;7.00;6.30;;;11.10;99.90;;;;;;4998678;28;20475;-61
2023/04/23 06:50:30;;;;;;;6.33;5.73;;;11.20;99.90;;;;;;4993278;28;20574;-60
2023/04/23 06:52:58;;;;;;;6.30;5.80;;;11.20;99.90;;;;;;5008972;28;20517;-60
2023/04/23 06:55:27;;;;;;;6.63;5.93;;;11.20;99.90;;;;;;5018957;28;20475;-60
2023/04/23 06:57:56;;;;;;;5.73;5.23;;;11.20;99.90;;;;;;5006144;28;20482;-61
2023/04/23 07:00:24;;;;;;;5.80;5.30;;;11.30;99.90;;;;;;4995885;28;20509;-61
2023/04/23 07:02:52;;;;;;;6.60;5.73;;;11.30;99.90;;;;;;5003859;28;20494;-61
2023/04/23 07:05:20;;;;;;;6.67;6.07;;;11.30;99.90;;;;;;4992760;28;20555;-61
2023/04/23 07:07:50;;;;;;;6.00;5.47;;;11.30;99.90;;;;;;5013788;28;20471;-61
2023/04/23 07:10:18;;;;;;;7.83;5.23;;;11.30;99.90;;;;;;4992620;28;20503;-60
2023/04/23 07:12:46;;;;;;;6.43;5.90;;;11.40;99.90;;;;;;4979539;28;20488;-60
2023/04/23 07:15:14;;;;;;;7.30;6.60;;;11.50;99.90;;;;;;4993691;28;20475;-63
2023/04/23 07:17:42;;;;;;;7.00;6.40;;;11.40;99.90;;;;;;4996222;28;20478;-63
2023/04/23 07:20:10;;;;;;;7.47;6.73;;;11.50;99.90;;;;;;4994150;28;20585;-60
2023/04/23 07:22:38;;;;;;;7.40;6.07;;;11.50;99.90;;;;;;5012950;28;21117;-61
2023/04/23 07:25:08;;;;;;;7.40;6.70;;;11.40;99.90;;;;;;5008429;28;20482;-61
2023/04/23 07:27:36;;;;;;;6.73;6.13;;;11.40;99.90;;;;;;4966635;28;1108034;-61
2023/04/23 07:30:06;;;;;;;6.80;6.20;;;11.50;99.90;;;;;;5001589;28;20550;-61
2023/04/23 07:32:34;;;;;;;7.03;6.33;;;11.50;99.90;;;;;;5007030;28;20544;-61
2023/04/23 07:35:03;;;;;;;6.13;5.53;;;11.50;99.90;;;;;;4999214;28;20481;-60
2023/04/23 07:37:31;;;;;;;7.90;7.17;;;11.60;99.90;;;;;;5004446;28;22655;-61
2023/04/23 07:40:01;;;;;;;7.70;6.90;;;11.70;99.90;;;;;;4993513;28;20487;-60
2023/04/23 07:42:30;;;;;;;7.17;6.47;;;11.70;99.90;;;;;;5002529;28;20491;-61
2023/04/23 07:44:58;;;;;;;7.47;6.87;;;11.70;99.90;;;;;;5002956;28;20471;-60
2023/04/23 07:47:26;;;;;;;8.93;7.30;;;11.80;99.90;;;;;;5007160;28;20482;-60
2023/04/23 07:49:54;;;;;;;8.40;7.60;;;11.80;99.90;;;;;;5003696;28;20498;-61
2023/04/23 07:52:22;;;;;;;7.00;6.40;;;11.90;99.90;;;;;;4994223;28;20495;-62
2023/04/23 07:54:50;;;;;;;8.20;7.40;;;11.90;99.90;;;;;;5014173;28;20471;-61
2023/04/23 07:57:18;;;;;;;7.50;6.77;;;12.00;99.90;;;;;;5017035;28;20482;-62
2023/04/23 07:59:47;;;;;;;7.30;6.57;;;12.00;99.90;;;;;;5005753;28;20877;-61
2023/04/23 08:02:17;;;;;;;7.10;6.40;;;12.10;99.90;;;;;;4993099;28;20494;-61
2023/04/23 08:04:45;;;;;;;7.30;6.60;;;12.20;99.90;;;;;;4980376;28;20596;-61
2023/04/23 08:07:13;;;;;;;8.03;6.63;;;12.20;99.90;;;;;;4984134;28;21037;-61
2023/04/23 08:09:42;;;;;;;7.40;6.47;;;12.30;99.90;;;;;;4999050;28;20513;-61
2023/04/23 08:12:11;;;;;;;6.57;5.97;;;12.30;99.90;;;;;;4991036;28;22420;-61
2023/04/23 08:14:39;;;;;;;7.37;6.63;;;12.40;99.90;;;;;;5001003;28;20476;-62
2023/04/23 08:17:08;;;;;;;7.57;6.87;;;12.40;99.90;;;;;;4999414;28;20491;-61
2023/04/23 08:19:36;;;;;;;6.73;6.13;;;12.40;99.90;;;;;;4994841;28;20824;-61
2023/04/23 08:22:04;;;;;;;7.53;6.70;;;12.50;99.90;;;;;;5011143;28;20491;-61
2023/04/23 08:24:32;;;;;;;6.70;6.20;;;12.50;99.90;;;;;;5006703;28;21107;-61
2023/04/23 08:27:00;;;;;;;6.97;6.27;;;12.50;99.90;;;;;;5000514;28;20471;-60
2023/04/23 08:29:28;;;;;;;7.13;6.53;;;12.60;99.90;;;;;;4985304;28;20605;-60
2023/04/23 08:31:56;;;;;;;7.57;6.90;;;12.70;99.90;;;;;;4968658;28;20502;-61
2023/04/23 08:34:25;;;;;;;6.87;6.27;;;12.70;99.90;;;;;;4984727;28;20476;-61
2023/04/23 08:36:54;;;;;;;6.90;6.23;;;12.70;99.90;;;;;;4980279;28;20470;-61
2023/04/23 08:39:22;;;;;;;7.20;6.40;;;12.70;99.90;;;;;;4998869;28;20507;-61
2023/04/23 08:41:55;;;;;;;7.27;6.67;;;12.80;99.90;;;;;;4984521;28;20488;-61
2023/04/23 08:44:24;;;;;;;7.20;6.60;;;12.80;99.90;;;;;;4990622;28;20498;-61
2023/04/23 08:46:54;;;;;;;6.90;6.20;;;12.80;99.90;;;;;;4985427;28;21091;-61
2023/04/23 08:49:22;;;;;;;7.07;6.47;;;12.80;99.90;;;;;;4994549;28;20514;-61
2023/04/23 08:51:53;;;;;;;7.70;6.97;;;12.90;99.90;;;;;;4994745;28;20514;-61
2023/04/23 08:54:27;;;;;;;7.13;6.50;;;12.90;99.90;;;;;;4993419;28;21166;-62
2023/04/23 08:56:57;;;;;;;7.20;6.60;;;12.80;99.90;;;;;;4994625;28;20502;-61
2023/04/23 08:59:26;;;;;;;6.97;6.30;;;12.90;99.90;;;;;;4993660;28;21752;-61
2023/04/23 09:01:54;;;;;;;6.90;6.30;;;12.90;99.90;;;;;;4997564;28;20840;-61
2023/04/23 09:04:25;;;;;;;7.20;6.60;;;13.00;99.90;;;;;;4991729;28;20498;-61
2023/04/23 09:06:56;;;;;;;7.20;6.60;;;13.10;99.90;;;;;;4987386;28;20459;-61
2023/04/23 09:09:27;;;;;;;7.33;6.73;;;13.20;99.90;;;;;;4998791;28;20506;-62
2023/04/23 09:11:56;;;;;;;8.37;7.53;;;13.30;99.90;;;;;;4989376;28;21272;-60
2023/04/23 09:14:25;;;;;;;8.03;7.20;;;13.30;99.90;;;;;;5000000;28;20480;-61
2023/04/23 09:16:53;;;;;;;8.53;7.73;;;13.40;99.90;;;;;;4985522;28;20482;-62
2023/04/23 09:19:21;;;;;;;8.50;7.70;;;13.40;99.90;;;;;;4990787;28;20503;-62
2023/04/23 09:21:50;;;;;;;7.87;7.13;;;13.40;99.90;;;;;;4986288;28;20495;-61
2023/04/23 09:24:22;;;;;;;6.90;6.20;;;13.40;99.90;;;;;;4987300;28;20856;-61
2023/04/23 09:26:51;;;;;;;8.70;7.73;;;13.50;99.90;;;;;;5004904;28;20468;-62
2023/04/23 09:29:23;;;;;;;9.00;8.20;;;13.50;99.90;;;;;;4976512;28;20956;-61
2023/04/23 09:31:52;;;;;;;7.83;7.13;;;13.60;99.90;;;;;;4980832;28;20510;-61
2023/04/23 09:34:22;;;;;;;8.93;8.03;;;13.60;99.90;;;;;;4982781;28;20468;-61
2023/04/23 09:36:51;;;;;;;8.50;7.70;;;13.60;99.90;;;;;;4989082;28;20479;-61
2023/04/23 09:39:23;;;;;;;7.70;7.00;;;13.70;99.90;;;;;;5004523;28;21380;-61
2023/04/23 09:41:52;;;;;;;8.40;7.70;;;13.70;99.90;;;;;;4988399;28;20479;-60
2023/04/23 09:44:22;;;;;;;8.20;7.50;;;13.80;99.90;;;;;;5008741;28;20483;-61
2023/04/23 09:46:50;;;;;;;7.53;6.83;;;13.80;99.90;;;;;;5005361;28;20468;-62
2023/04/23 09:49:18;;;;;;;8.80;8.00;;;13.90;99.90;;;;;;5011944;28;20499;-61
2023/04/23 09:51:48;;;;;;;8.67;7.97;;;14.10;99.90;;;;;;5007038;28;20502;-62
2023/04/23 09:54:18;;;;;;;8.27;7.40;;;14.10;99.90;;;;;;5013460;28;20470;-62
2023/04/23 09:56:52;;;;;;;7.90;7.20;;;14.10;99.90;;;;;;5015022;28;20471;-62
2023/04/23 09:59:21;;;;;;;8.57;7.77;;;14.10;99.90;;;;;;5010477;28;20495;-62
2023/04/23 10:02:04;;;;;;;8.97;8.17;;;14.10;99.90;;;;;;5010978;28;22175;-61
2023/04/23 10:04:33;;;;;;;9.80;8.80;;;14.20;99.90;;;;;;5004323;28;20593;-61
2023/04/23 10:07:03;;;;;;;10.50;9.60;;;14.30;99.90;;;;;;5003865;28;20712;-62
2023/04/23 10:09:46;;;;;;;9.17;8.23;;;14.30;99.90;;;;;;4999300;28;20495;-60
2023/04/23 10:12:17;;;;;;;8.43;7.73;;;14.30;99.90;;;;;;5000725;28;20557;-62
2023/04/23 10:14:56;;;;;;;9.93;9.03;;;14.30;99.90;;;;;;5013379;28;20467;-62
2023/04/23 10:17:24;;;;;;;9.90;9.00;;;14.30;99.90;;;;;;5015845;28;20471;-61
2023/04/23 10:19:52;;;;;;;9.10;8.30;;;14.40;99.90;;;;;;5009595;28;20993;-66
2023/04/23 10:22:22;;;;;;;9.63;8.73;;;14.50;99.90;;;;;;5010664;28;20475;-60
2023/04/23 10:24:57;;;;;;;9.37;8.37;;;14.60;99.90;;;;;;5009333;28;20859;-61
2023/04/23 10:27:29;;;;;;;9.33;8.43;;;14.50;99.90;;;;;;5001487;28;20466;-62
2023/04/23 10:30:18;;;;;;;9.37;8.47;;;14.50;99.90;;;;;;5001271;28;21538;-61
2023/04/23 10:32:48;;;;;;;9.63;8.83;;;14.70;99.90;;;;;;4999808;28;20491;-61
2023/04/23 10:35:16;;;;;;;9.20;8.40;;;14.80;99.90;;;;;;5009589;28;20459;-61
2023/04/23 10:37:46;;;;;;;10.27;9.27;;;14.90;99.90;;;;;;5009890;28;20574;-62
2023/04/23 10:40:18;;;;;;;10.87;9.90;;;14.90;99.90;;;;;;5012564;28;21027;-61
2023/04/23 10:42:48;;;;;;;9.77;8.87;;;14.90;99.90;;;;;;5008733;28;20514;-60
2023/04/23 10:45:17;;;;;;;9.57;8.77;;;14.90;99.90;;;;;;5016430;28;20487;-60
2023/04/23 10:47:48;;;;;;;11.67;10.57;;;15.00;99.90;;;;;;5012554;28;20979;-61
2023/04/23 10:50:24;;;;;;;11.23;10.23;;;15.10;99.90;;;;;;5010643;28;21018;-61
2023/04/23 10:52:53;;;;;;;11.50;10.40;;;15.20;99.90;;;;;;5008695;28;20501;-61
2023/04/23 10:55:22;;;;;;;11.60;10.60;;;15.30;99.90;;;;;;5011175;28;20494;-61
2023/04/23 10:58:02;;;;;;;12.23;11.10;;;15.50;99.90;;;;;;5010669;28;20467;-60
2023/04/23 11:00:44;;;;;;;12.40;11.27;;;15.60;99.90;;;;;;5016101;28;20602;-60
2023/04/23 11:03:30;;;;;;;12.97;11.87;;;15.70;99.90;;;;;;5020900;28;20473;-60
2023/04/23 11:06:02;;;;;;;13.27;11.87;;;15.80;99.90;;;;;;5014522;28;20894;-60
2023/04/23 11:08:31;;;;;;;12.90;11.40;;;15.90;99.90;;;;;;5013679;28;20852;-61
2023/04/23 11:11:00;;;;;;;12.53;11.43;;;16.00;99.90;;;;;;5020310;28;21056;-61
2023/04/23 11:13:30;;;;;;;13.87;12.50;;;16.10;99.90;;;;;;5017698;28;20476;-60
2023/04/23 11:16:15;;;;;;;12.53;11.40;;;16.30;99.90;;;;;;5020270;28;20459;-60
2023/04/23 11:19:03;;;;;;;13.37;12.17;;;16.40;99.90;;;;;;5019006;28;20977;-61
2023/04/23 11:21:57;;;;;;;12.50;11.30;;;16.50;99.90;;;;;;5015856;28;20495;-61
2023/04/23 11:24:28;;;;;;;13.20;12.10;;;16.70;99.90;;;;;;5019529;28;20495;-61
2023/04/23 11:26:56;;;;;;;13.20;12.07;;;16.90;99.90;;;;;;5010627;28;20637;-61
2023/04/23 11:29:27;;;;;;;14.10;12.80;;;17.00;99.90;;;;;;4998208;28;20863;-61
2023/04/23 11:31:55;;;;;;;12.90;11.70;;;17.10;99.90;;;;;;5016582;28;20484;-60
2023/04/23 11:34:26;;;;;;;12.70;11.57;;;17.20;99.90;;;;;;5018908;28;20852;-61
2023/04/23 11:36:55;;;;;;;12.37;11.17;;;17.30;99.90;;;;;;5015656;28;20495;-59
2023/04/23 11:39:24;;;;;;;11.53;10.53;;;17.40;99.90;;;;;;5014435;28;20488;-60
2023/04/23 11:41:52;;;;;;;12.17;11.07;;;17.50;99.90;;;;;;5010576;28;20873;-61
2023/04/23 11:44:21;;;;;;;10.87;9.87;;;17.70;99.90;;;;;;5016307;28;20933;-61
2023/04/23 11:46:51;;;;;;;11.07;10.17;;;17.80;99.90;;;;;;5018460;28;20482;-61
2023/04/23 11:49:19;;;;;;;10.90;10.00;;;17.90;99.90;;;;;;5016505;28;20495;-61
2023/04/23 11:51:47;;;;;;;11.53;10.47;;;18.00;99.90;;;;;;5013292;28;20487;-61
2023/04/23 11:54:15;;;;;;;9.87;9.10;;;18.00;99.90;;;;;;5021366;28;20467;-61
2023/04/23 11:56:43;;;;;;;11.53;10.53;;;18.20;99.90;;;;;;5016423;28;20473;-61
2023/04/23 11:59:11;;;;;;;10.50;9.50;;;18.40;99.90;;;;;;5015855;28;20492;-61
2023/04/23 12:01:46;;;;;;;9.30;8.47;;;18.40;99.90;;;;;;5009270;28;20929;-61
2023/04/23 12:04:18;;;;;;;10.77;9.67;;;18.60;99.90;;;;;;5006834;28;20474;-61
2023/04/23 12:06:48;;;;;;;11.63;10.53;;;18.60;99.90;;;;;;4997800;28;20495;-61
2023/04/23 12:09:18;;;;;;;10.20;9.40;;;18.50;99.90;;;;;;5008694;28;20489;-61
2023/04/23 12:11:46;;;;;;;9.50;8.70;;;18.40;99.90;;;;;;5005768;28;20487;-61
2023/04/23 12:14:15;;;;;;;9.47;8.77;;;18.40;99.90;;;;;;5001019;28;21165;-61
2023/04/23 12:16:45;;;;;;;9.57;8.83;;;18.50;99.90;;;;;;5002541;28;23041;-60
2023/04/23 12:19:17;;;;;;;10.40;9.40;;;18.60;99.90;;;;;;5002046;28;20495;-60
2023/04/23 12:21:53;;;;;;;9.80;9.10;;;18.90;99.90;;;;;;5000420;28;20495;-61
2023/04/23 12:24:23;;;;;;;10.03;9.23;;;18.90;99.90;;;;;;5002241;28;20562;-61
2023/04/23 12:26:53;;;;;;;8.73;8.13;;;19.00;99.90;;;;;;4995080;28;22826;-61
2023/04/23 12:29:22;;;;;;;8.17;7.47;;;19.00;99.90;;;;;;4997568;28;21032;-61
2023/04/23 12:31:51;;;;;;;8.30;7.60;;;19.10;99.90;;;;;;5002705;28;20479;-60
2023/04/23 12:34:21;;;;;;;7.70;7.03;;;19.10;99.90;;;;;;4997939;28;20472;-61
2023/04/23 12:36:50;;;;;;;8.03;7.33;;;19.40;99.90;;;;;;5004282;28;20490;-61
2023/04/23 12:39:20;;;;;;;7.30;6.70;;;19.70;99.90;;;;;;5013517;28;20502;-61
2023/04/23 12:41:50;;;;;;;7.83;7.13;;;20.00;99.90;;;;;;5010200;28;20495;-61
2023/04/23 12:44:18;;;;;;;7.07;6.47;;;20.00;99.90;;;;;;5001641;28;20502;-61
2023/04/23 12:46:46;;;;;;;6.30;5.80;;;20.00;99.90;;;;;;4998699;28;21015;-62